createdAt,value
2022-08-03T00:03:11.267Z,16.497192
2022-08-03T00:06:37.210Z,16.577759
2022-08-03T00:10:01.823Z,16.658325
2022-08-03T00:13:27.152Z,16.678467
2022-08-03T00:16:52.481Z,16.527405
2022-08-03T00:20:17.809Z,16.446838
2022-08-03T00:23:51.079Z,16.386414
2022-08-03T00:27:08.479Z,16.376343
2022-08-03T00:30:33.800Z,16.275635
2022-08-03T00:34:03.424Z,16.245422
2022-08-03T00:37:24.419Z,16.225281
2022-08-03T00:40:49.763Z,16.154785
2022-08-03T00:44:15.155Z,16.074219
2022-08-03T00:47:40.471Z,16.003723
2022-08-03T00:51:05.884Z,15.973511
2022-08-03T00:54:31.217Z,15.96344
2022-08-03T00:57:56.559Z,15.943298
2022-08-03T01:01:22.031Z,15.933228
2022-08-03T01:04:47.251Z,15.892944
2022-08-03T01:08:12.583Z,15.892944
2022-08-03T01:12:00.390Z,15.923157
2022-08-03T01:15:03.286Z,15.892944
2022-08-03T01:18:28.611Z,15.892944
2022-08-03T01:21:53.972Z,15.83252
2022-08-03T01:25:19.345Z,15.83252
2022-08-03T01:28:44.711Z,15.83252
2022-08-03T01:32:52.301Z,15.83252
2022-08-03T01:35:35.444Z,15.872803
2022-08-03T01:39:00.743Z,15.933228
2022-08-03T01:42:26.113Z,16.074219
2022-08-03T01:45:51.487Z,16.054077
2022-08-03T01:49:16.890Z,16.114502
2022-08-03T01:52:42.175Z,16.154785
2022-08-03T01:56:07.530Z,16.023865
2022-08-03T01:59:32.914Z,15.973511
2022-08-03T02:02:58.300Z,15.923157
2022-08-03T02:06:59.015Z,15.903015
2022-08-03T02:09:48.988Z,15.822449
2022-08-03T02:13:14.359Z,15.83252
2022-08-03T02:16:39.721Z,15.903015
2022-08-03T02:20:05.064Z,15.96344
2022-08-03T02:23:30.437Z,15.96344
2022-08-03T02:26:55.767Z,16.003723
2022-08-03T02:30:21.141Z,16.023865
2022-08-03T02:33:46.501Z,16.013794
2022-08-03T02:37:11.845Z,16.013794
2022-08-03T02:40:37.201Z,15.943298
2022-08-03T02:44:06.738Z,15.872803
2022-08-03T02:47:27.915Z,15.84259
2022-08-03T02:50:53.282Z,15.892944
2022-08-03T02:54:18.695Z,15.903015
2022-08-03T02:57:44.101Z,15.822449
2022-08-03T03:01:09.623Z,15.681458
2022-08-03T03:04:34.958Z,15.570679
2022-08-03T03:08:01.360Z,15.510254
2022-08-03T03:11:26.673Z,15.59082
2022-08-03T03:14:52.138Z,15.651245
2022-08-03T03:18:21.828Z,15.71167
2022-08-03T03:21:42.908Z,15.671387
2022-08-03T03:25:08.304Z,15.691528
2022-08-03T03:28:33.677Z,15.681458
2022-08-03T03:31:59.067Z,15.721741
2022-08-03T03:35:24.456Z,15.741882
2022-08-03T03:38:49.864Z,15.762024
2022-08-03T03:42:15.441Z,15.822449
2022-08-03T03:45:40.539Z,15.84259
2022-08-03T03:49:06.052Z,15.862732
2022-08-03T03:52:31.390Z,15.903015
2022-08-03T03:55:57.972Z,15.943298
2022-08-03T03:59:22.134Z,16.013794
2022-08-03T04:02:47.528Z,16.074219
2022-08-03T04:06:12.855Z,16.114502
2022-08-03T04:09:38.283Z,16.124573
2022-08-03T04:13:03.684Z,16.124573
2022-08-03T04:16:29.039Z,16.154785
2022-08-03T04:19:54.406Z,16.225281
2022-08-03T04:23:19.787Z,16.275635
2022-08-03T04:26:47.521Z,16.33606
2022-08-03T04:30:10.532Z,16.406555
2022-08-03T04:33:35.885Z,16.497192
2022-08-03T04:37:01.254Z,16.557617
2022-08-03T04:40:29.178Z,16.607971
2022-08-03T04:43:51.970Z,16.698608
2022-08-03T04:47:17.435Z,16.819458
2022-08-03T04:50:42.834Z,16.910095
2022-08-03T04:54:08.184Z,16.97052
2022-08-03T04:57:33.514Z,17.182007
2022-08-03T05:00:58.830Z,17.59491
2022-08-03T05:04:24.143Z,18.048096
2022-08-03T05:07:49.464Z,18.60199
2022-08-03T05:11:14.827Z,19.035034
2022-08-03T05:14:40.198Z,19.367371
2022-08-03T05:18:06.068Z,19.437866
2022-08-03T05:21:41.633Z,19.437866
2022-08-03T05:24:56.162Z,19.468079
2022-08-03T05:28:21.478Z,19.478149
2022-08-03T05:31:46.842Z,19.468079
2022-08-03T05:35:55.417Z,19.538574
2022-08-03T05:38:37.534Z,19.558716
2022-08-03T05:42:02.892Z,19.629211
2022-08-03T05:45:28.568Z,19.780273
2022-08-03T05:48:53.543Z,20.011902
2022-08-03T05:52:18.838Z,20.354309
2022-08-03T05:55:44.165Z,20.716858
2022-08-03T05:59:35.633Z,21.008911
2022-08-03T06:02:34.839Z,21.401672
2022-08-03T06:06:00.737Z,21.613159
2022-08-03T06:09:25.458Z,21.864929
2022-08-03T06:12:50.860Z,22.046204
2022-08-03T06:16:16.174Z,22.237549
2022-08-03T06:19:41.495Z,22.358398
2022-08-03T06:23:07.456Z,22.489319
2022-08-03T06:26:32.164Z,22.620239
2022-08-03T06:29:57.497Z,22.801514
2022-08-03T06:33:22.806Z,22.902222
2022-08-03T06:36:48.125Z,22.972717
2022-08-03T06:40:13.865Z,23.043213
2022-08-03T06:44:02.727Z,23.043213
2022-08-03T06:47:04.070Z,23.023071
2022-08-03T06:50:29.404Z,23.103638
2022-08-03T06:53:54.740Z,23.204346
2022-08-03T06:57:20.060Z,23.204346
2022-08-03T07:00:45.377Z,23.274841
2022-08-03T07:04:10.720Z,23.355408
2022-08-03T07:07:36.053Z,23.38562
2022-08-03T07:11:01.386Z,23.466187
2022-08-03T07:14:26.727Z,23.526611
2022-08-03T07:17:52.169Z,23.546753
2022-08-03T07:21:17.520Z,23.657532
2022-08-03T07:24:42.869Z,23.75824
2022-08-03T07:28:08.189Z,23.788452
2022-08-03T07:31:34.296Z,23.778381
2022-08-03T07:35:00.982Z,23.788452
2022-08-03T07:38:24.195Z,23.798523
2022-08-03T07:41:49.559Z,23.848877
2022-08-03T07:45:16.561Z,23.979797
2022-08-03T07:48:40.317Z,24.050293
2022-08-03T07:52:05.585Z,24.130859
2022-08-03T07:55:30.902Z,24.181213
2022-08-03T07:58:56.241Z,24.281921
2022-08-03T08:02:21.564Z,24.302063
2022-08-03T08:05:46.916Z,24.402771
2022-08-03T08:09:12.207Z,24.584045
2022-08-03T08:12:37.563Z,24.674683
2022-08-03T08:16:02.895Z,24.755249
2022-08-03T08:19:28.208Z,24.76532
2022-08-03T08:22:54.408Z,24.89624
2022-08-03T08:26:19.826Z,24.976807
2022-08-03T08:29:45.901Z,24.986877
2022-08-03T08:33:15.839Z,25.027161
2022-08-03T08:36:35.883Z,24.996948
2022-08-03T08:40:01.231Z,25.027161
2022-08-03T08:43:26.556Z,25.127869
2022-08-03T08:46:52.033Z,25.319214
2022-08-03T08:50:21.610Z,25.299072
2022-08-03T08:53:42.702Z,25.178223
2022-08-03T08:57:21.232Z,25.26886
2022-08-03T09:00:34.264Z,25.379639
2022-08-03T09:03:59.655Z,25.379639
2022-08-03T09:07:24.981Z,25.429993
2022-08-03T09:10:50.351Z,25.500488
2022-08-03T09:14:37.146Z,25.65155
2022-08-03T09:17:40.995Z,25.701904
2022-08-03T09:21:19.093Z,25.792542
2022-08-03T09:24:41.019Z,25.913391
2022-08-03T09:27:56.983Z,25.873108
2022-08-03T09:31:22.330Z,25.822754
2022-08-03T09:34:47.660Z,25.832825
2022-08-03T09:38:13.986Z,25.852966
2022-08-03T09:41:38.391Z,26.064453
2022-08-03T09:45:03.710Z,26.205444
2022-08-03T09:48:29.059Z,26.356506
2022-08-03T09:52:24.757Z,26.447144
2022-08-03T09:55:23.475Z,26.497498
2022-08-03T09:58:45.071Z,26.547852
2022-08-03T10:02:10.416Z,26.578064
2022-08-03T10:05:35.768Z,26.759338
2022-08-03T10:09:01.132Z,26.880188
2022-08-03T10:12:26.507Z,27.061462
2022-08-03T10:16:20.974Z,27.272949
2022-08-03T10:19:17.157Z,27.323303
2022-08-03T10:22:42.500Z,27.323303
2022-08-03T10:26:07.853Z,27.494507
2022-08-03T10:29:33.254Z,27.585144
2022-08-03T10:32:58.613Z,27.685852
2022-08-03T10:36:23.983Z,27.766418
2022-08-03T10:39:49.348Z,27.716064
2022-08-03T10:43:14.662Z,27.78656
2022-08-03T10:46:44.293Z,27.846985
2022-08-03T10:50:05.336Z,27.957764
2022-08-03T10:53:30.638Z,28.03833
2022-08-03T10:56:55.981Z,28.108826
2022-08-03T11:00:21.329Z,28.108826
2022-08-03T11:03:46.653Z,28.16925
2022-08-03T11:07:12.044Z,28.219604
2022-08-03T11:10:37.339Z,28.300171
2022-08-03T11:14:02.675Z,28.269958
2022-08-03T11:17:27.992Z,28.269958
2022-08-03T11:20:53.336Z,28.300171
2022-08-03T11:24:18.677Z,28.400879
2022-08-03T11:27:44.006Z,28.54187
2022-08-03T11:31:15.257Z,28.612366
2022-08-03T11:34:34.702Z,28.592224
2022-08-03T11:38:01.624Z,28.54187
2022-08-03T11:41:25.387Z,28.521729
2022-08-03T11:44:50.745Z,28.642578
2022-08-03T11:48:16.049Z,28.672791
2022-08-03T11:51:41.381Z,28.733215
2022-08-03T11:55:06.709Z,28.803711
2022-08-03T11:59:00.395Z,28.713074
2022-08-03T12:01:57.338Z,28.592224
2022-08-03T12:05:22.827Z,28.642578
2022-08-03T12:08:48.210Z,28.672791
2022-08-03T12:12:13.589Z,28.682861
2022-08-03T12:15:38.936Z,28.66272
2022-08-03T12:19:04.326Z,28.592224
2022-08-03T12:22:29.646Z,28.54187
2022-08-03T12:25:54.973Z,28.642578
2022-08-03T12:29:20.340Z,28.592224
2022-08-03T12:32:45.662Z,28.622437
2022-08-03T12:36:11.005Z,28.703003
2022-08-03T12:39:36.342Z,28.773499
2022-08-03T12:43:01.685Z,28.833923
2022-08-03T12:46:27.002Z,28.884277
2022-08-03T12:49:52.333Z,28.813782
2022-08-03T12:53:17.688Z,28.763428
2022-08-03T12:56:43.046Z,28.713074
2022-08-03T13:00:13.049Z,28.743286
2022-08-03T13:03:38.765Z,28.733215
2022-08-03T13:07:02.341Z,28.733215
2022-08-03T13:10:25.114Z,28.763428
2022-08-03T13:13:50.460Z,28.813782
2022-08-03T13:17:15.862Z,28.803711
2022-08-03T13:20:41.233Z,28.833923
2022-08-03T13:24:06.617Z,28.783569
2022-08-03T13:28:03.053Z,28.813782
2022-08-03T13:30:57.320Z,28.783569
2022-08-03T13:34:24.013Z,28.763428
2022-08-03T13:37:48.846Z,28.592224
2022-08-03T13:41:15.526Z,28.66272
2022-08-03T13:44:38.872Z,28.703003
2022-08-03T13:48:04.221Z,28.773499
2022-08-03T13:51:29.591Z,28.703003
2022-08-03T13:54:55.055Z,28.682861
2022-08-03T13:58:20.887Z,28.622437
2022-08-03T14:01:55.157Z,28.612366
2022-08-03T14:05:13.600Z,28.491516
2022-08-03T14:08:38.961Z,28.461304
2022-08-03T14:12:07.855Z,28.461304
2022-08-03T14:15:29.764Z,28.431091
2022-08-03T14:18:55.230Z,28.41095
2022-08-03T14:22:20.635Z,28.441162
2022-08-03T14:25:50.677Z,28.54187
2022-08-03T14:29:11.410Z,28.66272
2022-08-03T15:05:03.832Z,28.803711
2022-08-03T15:08:29.238Z,28.713074
2022-08-03T15:11:54.608Z,28.66272
2022-08-03T15:15:20.011Z,28.612366
2022-08-03T15:18:45.376Z,28.551941
2022-08-03T15:22:10.736Z,28.511658
2022-08-03T15:26:02.599Z,28.491516
2022-08-03T15:29:01.479Z,28.481445
2022-08-03T15:32:26.948Z,28.491516
2022-08-03T15:35:52.282Z,28.511658
2022-08-03T15:39:17.778Z,28.511658
2022-08-03T15:42:43.103Z,28.431091
2022-08-03T15:49:33.922Z,28.340454
2022-08-03T15:52:59.486Z,28.239746
2022-08-03T15:56:24.904Z,28.16925
2022-08-03T15:59:50.323Z,28.118896
2022-08-03T16:03:15.746Z,28.058472
2022-08-03T16:06:41.141Z,28.018188
2022-08-03T16:10:06.506Z,27.877197
2022-08-03T16:14:05.073Z,27.846985
2022-08-03T16:16:58.010Z,27.836914
2022-08-03T16:20:31.600Z,27.78656
2022-08-03T16:23:48.760Z,27.716064
2022-08-03T16:27:17.586Z,27.695923
2022-08-03T16:30:39.563Z,27.685852
2022-08-03T16:34:04.935Z,27.65564
2022-08-03T16:37:39.322Z,27.554932
2022-08-03T16:40:56.642Z,27.444153
2022-08-03T16:44:22.092Z,27.494507
2022-08-03T16:47:47.501Z,27.514648
2022-08-03T16:51:12.930Z,27.565002
2022-08-03T16:54:38.317Z,27.585144
2022-08-03T16:58:03.894Z,27.585144
2022-08-03T17:01:29.341Z,27.544861
2022-08-03T17:04:54.485Z,27.474365
2022-08-03T17:08:26.402Z,27.40387
2022-08-03T17:11:46.472Z,27.313232
2022-08-03T17:15:10.779Z,27.222595
2022-08-03T17:18:36.158Z,27.121887
2022-08-03T17:22:01.572Z,27.061462
2022-08-03T17:25:40.063Z,26.990967
2022-08-03T17:28:56.531Z,26.9104
2022-08-03T17:32:21.231Z,26.839905
2022-08-03T17:35:43.113Z,26.759338
2022-08-03T17:39:08.521Z,26.769409
2022-08-03T17:42:34.798Z,26.759338
2022-08-03T17:45:59.269Z,26.719055
2022-08-03T17:49:25.360Z,26.65863
2022-08-03T17:52:50.046Z,26.628418
2022-08-03T17:56:40.553Z,26.567993
2022-08-03T17:59:51.139Z,26.507568
2022-08-03T18:03:06.307Z,26.437073
2022-08-03T18:06:31.666Z,26.326294
2022-08-03T18:10:02.865Z,26.27594
2022-08-03T18:13:22.399Z,26.195374
2022-08-03T18:16:47.760Z,26.074524
2022-08-03T18:20:32.542Z,25.923462
2022-08-03T18:23:38.566Z,25.832825
2022-08-03T18:27:04.013Z,25.65155
2022-08-03T18:30:29.480Z,25.540771
2022-08-03T18:34:15.938Z,25.379639
2022-08-03T18:37:24.493Z,25.198364
2022-08-03T18:40:48.501Z,25.047302
2022-08-03T18:44:37.945Z,24.926453
2022-08-03T18:47:43.527Z,24.755249
2022-08-03T18:51:01.843Z,24.624329
2022-08-03T18:54:44.703Z,24.533691
2022-08-03T18:57:52.638Z,24.473267
2022-08-03T19:01:58.855Z,24.322205
2022-08-03T19:04:44.148Z,24.221497
2022-08-03T19:08:08.852Z,24.080505
2022-08-03T19:12:11.303Z,23.999939
2022-08-03T19:14:59.721Z,23.899231
2022-08-03T19:18:25.021Z,23.828735
2022-08-03T19:21:50.396Z,23.728027
2022-08-03T19:25:15.805Z,23.627319
2022-08-03T19:28:41.237Z,23.607178
2022-08-03T19:32:06.603Z,23.496399
2022-08-03T19:35:46.511Z,23.496399
2022-08-03T19:38:57.400Z,23.476257
2022-08-03T19:42:23.056Z,23.425903
2022-08-03T19:49:14.871Z,23.284912
2022-08-03T19:52:38.734Z,23.2547
2022-08-03T19:56:04.056Z,23.204346
2022-08-03T19:59:29.375Z,23.153992
2022-08-03T20:02:54.701Z,23.103638
2022-08-03T20:06:20.015Z,23.073425
2022-08-03T20:09:45.339Z,23.023071
2022-08-03T20:13:10.653Z,23.043213
2022-08-03T20:16:36.030Z,23.013
2022-08-03T20:20:01.406Z,22.972717
2022-08-03T20:23:26.787Z,22.912292
2022-08-03T20:26:52.518Z,22.88208
2022-08-03T20:30:17.449Z,22.851868
2022-08-03T20:33:45.994Z,22.771301
2022-08-03T20:37:09.405Z,22.75116
2022-08-03T20:40:33.421Z,22.75116
2022-08-03T20:43:58.731Z,22.680664
2022-08-03T20:47:24.205Z,22.640381
2022-08-03T20:50:49.366Z,22.650452
2022-08-03T20:54:22.610Z,22.75116
2022-08-03T20:57:40.305Z,22.731018
2022-08-03T21:01:05.383Z,22.670593
2022-08-03T21:04:31.138Z,22.620239
2022-08-03T21:08:04.601Z,22.539673
2022-08-03T21:11:22.719Z,22.459106
2022-08-03T21:13:06.505Z,23.38562
2022-08-03T21:14:50.503Z,22.348328
2022-08-03T21:18:14.274Z,22.217407
2022-08-03T21:21:40.049Z,22.207336
2022-08-03T21:25:05.820Z,22.146912
2022-08-03T21:28:31.605Z,22.056274
2022-08-03T21:31:57.431Z,22.015991
2022-08-03T21:35:23.203Z,21.985779
2022-08-03T21:38:56.047Z,21.774292
2022-08-03T21:42:14.746Z,21.462097
2022-08-03T21:45:40.503Z,21.069336
2022-08-03T21:49:52.291Z,20.938416
2022-08-03T21:52:32.052Z,20.938416
2022-08-03T21:55:57.841Z,21.039124
2022-08-03T21:59:23.631Z,21.008911
2022-08-03T22:02:51.664Z,20.948486
2022-08-03T22:06:16.271Z,20.757141
2022-08-03T22:09:40.949Z,20.666504
2022-08-03T22:13:06.743Z,20.686646
2022-08-03T22:16:32.241Z,20.696716
2022-08-03T22:19:57.540Z,20.606079
2022-08-03T22:23:22.857Z,20.565796
2022-08-03T22:26:48.147Z,20.465088
2022-08-03T22:30:13.452Z,20.334167
2022-08-03T22:33:38.769Z,20.203247
2022-08-03T22:37:04.068Z,20.233459
2022-08-03T22:40:29.387Z,20.36438
2022-08-03T22:43:54.708Z,20.475159
2022-08-03T22:47:20.473Z,20.505371
2022-08-03T22:50:45.310Z,20.394592
2022-08-03T22:54:10.647Z,20.24353
2022-08-03T22:57:35.942Z,20.233459
2022-08-03T23:01:01.253Z,20.334167
2022-08-03T23:04:26.568Z,20.414734
2022-08-03T23:07:51.881Z,20.414734
2022-08-03T23:11:17.196Z,20.475159
2022-08-03T23:14:42.528Z,20.424805
2022-08-03T23:18:07.851Z,20.394592
2022-08-03T23:21:51.205Z,20.434875
2022-08-03T23:24:58.469Z,20.475159
2022-08-03T23:28:23.789Z,20.505371
2022-08-03T23:31:49.097Z,20.4953
2022-08-03T23:35:14.410Z,20.4953
2022-08-03T23:38:39.738Z,20.434875
2022-08-03T23:42:05.020Z,20.314026
2022-08-03T23:45:30.314Z,20.183105
2022-08-03T23:48:56.379Z,20.11261
2022-08-03T23:52:21.883Z,20.132751
2022-08-03T23:55:46.256Z,20.132751
2022-08-03T23:59:11.583Z,20.102539
